<?xml version="1.0" encoding="UTF-8" standalone="no" ?>
<gpx xmlns="http://www.topografix.com/GPX/1/1" xmlns:xsi="http://www.w3.org/2001/XMLSchema-instance" xsi:schemaLocation="http://www.topografix.com/GPX/1/1 http://www.topografix.com/GPX/1/1/gpx.xsd" version="1.1" creator="VisuGPX - https://www.visugpx.com">
  <metadata>
    <name>Bois loverval</name>
  </metadata>
  <trk>
    <name><![CDATA[Bois loverval]]></name>
    <extensions>
      <line xmlns="http://www.topografix.com/GPX/gpx_style/0/2">
        <color>0000FF</color>
        <width>4</width>
      </line>
    </extensions>
    <trkseg>
      <trkpt lat="50.37414" lon="4.45748">
        <ele>303.566</ele>
        <time>2017-07-13T12:27:45Z</time>
      </trkpt>
      <trkpt lat="50.37267" lon="4.45671">
        <ele>258.929</ele>
        <time>2017-07-13T12:28:15Z</time>
      </trkpt>
      <trkpt lat="50.37261" lon="4.45642">
        <ele>243.321</ele>
        <time>2017-07-13T12:28:24Z</time>
      </trkpt>
      <trkpt lat="50.37205" lon="4.45612">
        <ele>222.508</ele>
        <time>2017-07-13T12:28:52Z</time>
      </trkpt>
      <trkpt lat="50.37084" lon="4.45601">
        <ele>215.417</ele>
        <time>2017-07-13T12:29:25Z</time>
      </trkpt>
      <trkpt lat="50.37044" lon="4.45686">
        <ele>218.884</ele>
        <time>2017-07-13T12:29:44Z</time>
      </trkpt>
      <trkpt lat="50.36994" lon="4.45679">
        <ele>222.622</ele>
        <time>2017-07-13T12:29:57Z</time>
      </trkpt>
      <trkpt lat="50.36953" lon="4.45709">
        <ele>225.368</ele>
        <time>2017-07-13T12:30:05Z</time>
      </trkpt>
      <trkpt lat="50.36869" lon="4.45707">
        <ele>226.044</ele>
        <time>2017-07-13T12:30:19Z</time>
      </trkpt>
      <trkpt lat="50.36812" lon="4.45674">
        <ele>224.83</ele>
        <time>2017-07-13T12:30:40Z</time>
      </trkpt>
      <trkpt lat="50.36755" lon="4.45664">
        <ele>231.63</ele>
        <time>2017-07-13T12:31:00Z</time>
      </trkpt>
      <trkpt lat="50.36711" lon="4.45668">
        <ele>228.693</ele>
        <time>2017-07-13T12:31:10Z</time>
      </trkpt>
      <trkpt lat="50.36668" lon="4.45692">
        <ele>227.349</ele>
        <time>2017-07-13T12:31:20Z</time>
      </trkpt>
      <trkpt lat="50.36601" lon="4.45682">
        <ele>224.002</ele>
        <time>2017-07-13T12:31:30Z</time>
      </trkpt>
      <trkpt lat="50.36577" lon="4.45735">
        <ele>224.422</ele>
        <time>2017-07-13T12:31:45Z</time>
      </trkpt>
      <trkpt lat="50.36513" lon="4.45751">
        <ele>225.208</ele>
        <time>2017-07-13T12:32:10Z</time>
      </trkpt>
      <trkpt lat="50.36473" lon="4.45744">
        <ele>228.135</ele>
        <time>2017-07-13T12:32:28Z</time>
      </trkpt>
      <trkpt lat="50.36422" lon="4.45709">
        <ele>240.512</ele>
        <time>2017-07-13T12:33:09Z</time>
      </trkpt>
      <trkpt lat="50.36392" lon="4.4571">
        <ele>238.02</ele>
        <time>2017-07-13T12:33:30Z</time>
      </trkpt>
      <trkpt lat="50.3629" lon="4.45627">
        <ele>254.756</ele>
        <time>2017-07-13T12:34:57Z</time>
      </trkpt>
      <trkpt lat="50.36269" lon="4.4572">
        <ele>254.492</ele>
        <time>2017-07-13T12:35:45Z</time>
      </trkpt>
      <trkpt lat="50.3622" lon="4.45788">
        <ele>246.638</ele>
        <time>2017-07-13T12:35:55Z</time>
      </trkpt>
      <trkpt lat="50.36222" lon="4.45822">
        <ele>242.938</ele>
        <time>2017-07-13T12:36:00Z</time>
      </trkpt>
      <trkpt lat="50.36176" lon="4.4584">
        <ele>242.921</ele>
        <time>2017-07-13T12:36:09Z</time>
      </trkpt>
      <trkpt lat="50.36165" lon="4.45886">
        <ele>241.213</ele>
        <time>2017-07-13T12:36:18Z</time>
      </trkpt>
      <trkpt lat="50.36097" lon="4.45949">
        <ele>236.743</ele>
        <time>2017-07-13T12:36:34Z</time>
      </trkpt>
      <trkpt lat="50.36045" lon="4.45918">
        <ele>235.807</ele>
        <time>2017-07-13T12:36:46Z</time>
      </trkpt>
      <trkpt lat="50.36008" lon="4.45942">
        <ele>237.208</ele>
        <time>2017-07-13T12:36:52Z</time>
      </trkpt>
      <trkpt lat="50.36012" lon="4.46006">
        <ele>235.822</ele>
        <time>2017-07-13T12:37:01Z</time>
      </trkpt>
      <trkpt lat="50.35914" lon="4.46175">
        <ele>230.999</ele>
        <time>2017-07-13T12:37:49Z</time>
      </trkpt>
      <trkpt lat="50.35783" lon="4.46209">
        <ele>238.797</ele>
        <time>2017-07-13T12:38:34Z</time>
      </trkpt>
      <trkpt lat="50.35698" lon="4.46273">
        <ele>239.423</ele>
        <time>2017-07-13T12:39:08Z</time>
      </trkpt>
      <trkpt lat="50.35677" lon="4.46275">
        <ele>242.529</ele>
        <time>2017-07-13T12:39:17Z</time>
      </trkpt>
      <trkpt lat="50.35608" lon="4.46106">
        <ele>235.855</ele>
        <time>2017-07-13T12:40:15Z</time>
      </trkpt>
      <trkpt lat="50.35591" lon="4.46012">
        <ele>249.735</ele>
        <time>2017-07-13T12:42:07Z</time>
      </trkpt>
      <trkpt lat="50.35537" lon="4.45991">
        <ele>255.448</ele>
        <time>2017-07-13T12:42:28Z</time>
      </trkpt>
      <trkpt lat="50.35408" lon="4.45865">
        <ele>256.499</ele>
        <time>2017-07-13T12:43:12Z</time>
      </trkpt>
      <trkpt lat="50.35344" lon="4.45825">
        <ele>252.107</ele>
        <time>2017-07-13T12:43:30Z</time>
      </trkpt>
      <trkpt lat="50.35267" lon="4.45692">
        <ele>252.627</ele>
        <time>2017-07-13T12:44:14Z</time>
      </trkpt>
      <trkpt lat="50.35233" lon="4.45655">
        <ele>257.308</ele>
        <time>2017-07-13T12:44:27Z</time>
      </trkpt>
      <trkpt lat="50.35197" lon="4.45641">
        <ele>257.83</ele>
        <time>2017-07-13T12:44:43Z</time>
      </trkpt>
      <trkpt lat="50.35007" lon="4.45436">
        <ele>256.657</ele>
        <time>2017-07-13T12:46:04Z</time>
      </trkpt>
      <trkpt lat="50.34965" lon="4.45357">
        <ele>256.445</ele>
        <time>2017-07-13T12:46:23Z</time>
      </trkpt>
      <trkpt lat="50.3485" lon="4.45263">
        <ele>258.751</ele>
        <time>2017-07-13T12:46:58Z</time>
      </trkpt>
      <trkpt lat="50.34863" lon="4.45132">
        <ele>259.357</ele>
        <time>2017-07-13T12:47:18Z</time>
      </trkpt>
      <trkpt lat="50.34933" lon="4.44938">
        <ele>259.353</ele>
        <time>2017-07-13T12:48:28Z</time>
      </trkpt>
      <trkpt lat="50.34927" lon="4.44808">
        <ele>257.873</ele>
        <time>2017-07-13T12:48:48Z</time>
      </trkpt>
      <trkpt lat="50.34948" lon="4.44674">
        <ele>250.236</ele>
        <time>2017-07-13T12:49:05Z</time>
      </trkpt>
      <trkpt lat="50.34979" lon="4.44559">
        <ele>255.487</ele>
        <time>2017-07-13T12:49:23Z</time>
      </trkpt>
      <trkpt lat="50.35006" lon="4.44518">
        <ele>255.842</ele>
        <time>2017-07-13T12:49:33Z</time>
      </trkpt>
      <trkpt lat="50.3503" lon="4.44099">
        <ele>275.426</ele>
        <time>2017-07-13T12:54:50Z</time>
      </trkpt>
      <trkpt lat="50.34931" lon="4.43843">
        <ele>265.308</ele>
        <time>2017-07-13T12:56:04Z</time>
      </trkpt>
      <trkpt lat="50.3486" lon="4.43729">
        <ele>253.949</ele>
        <time>2017-07-13T12:56:35Z</time>
      </trkpt>
      <trkpt lat="50.3479" lon="4.43698">
        <ele>256.616</ele>
        <time>2017-07-13T12:56:50Z</time>
      </trkpt>
      <trkpt lat="50.34762" lon="4.4363">
        <ele>255.964</ele>
        <time>2017-07-13T12:57:03Z</time>
      </trkpt>
      <trkpt lat="50.34786" lon="4.43586">
        <ele>260.12</ele>
        <time>2017-07-13T12:57:15Z</time>
      </trkpt>
      <trkpt lat="50.34866" lon="4.43506">
        <ele>262.886</ele>
        <time>2017-07-13T12:57:30Z</time>
      </trkpt>
      <trkpt lat="50.35061" lon="4.43391">
        <ele>257.152</ele>
        <time>2017-07-13T12:57:56Z</time>
      </trkpt>
      <trkpt lat="50.35053" lon="4.43288">
        <ele>253.292</ele>
        <time>2017-07-13T12:58:17Z</time>
      </trkpt>
      <trkpt lat="50.35137" lon="4.4311">
        <ele>246.855</ele>
        <time>2017-07-13T12:58:50Z</time>
      </trkpt>
      <trkpt lat="50.35085" lon="4.4304">
        <ele>247.913</ele>
        <time>2017-07-13T12:59:11Z</time>
      </trkpt>
      <trkpt lat="50.35049" lon="4.42957">
        <ele>250.343</ele>
        <time>2017-07-13T12:59:25Z</time>
      </trkpt>
      <trkpt lat="50.35097" lon="4.42849">
        <ele>232.507</ele>
        <time>2017-07-13T12:59:54Z</time>
      </trkpt>
      <trkpt lat="50.34989" lon="4.42539">
        <ele>224.708</ele>
        <time>2017-07-13T13:00:46Z</time>
      </trkpt>
      <trkpt lat="50.34958" lon="4.42355">
        <ele>205.782</ele>
        <time>2017-07-13T13:01:07Z</time>
      </trkpt>
      <trkpt lat="50.35072" lon="4.42054">
        <ele>205.479</ele>
        <time>2017-07-13T13:01:39Z</time>
      </trkpt>
      <trkpt lat="50.35255" lon="4.41884">
        <ele>200.257</ele>
        <time>2017-07-13T13:03:01Z</time>
      </trkpt>
      <trkpt lat="50.35299" lon="4.41829">
        <ele>200.623</ele>
        <time>2017-07-13T13:03:20Z</time>
      </trkpt>
      <trkpt lat="50.35317" lon="4.41776">
        <ele>201.679</ele>
        <time>2017-07-13T13:03:25Z</time>
      </trkpt>
      <trkpt lat="50.3533" lon="4.41666">
        <ele>194.725</ele>
        <time>2017-07-13T13:03:35Z</time>
      </trkpt>
      <trkpt lat="50.3531" lon="4.41639">
        <ele>192.725</ele>
        <time>2017-07-13T13:03:40Z</time>
      </trkpt>
      <trkpt lat="50.35302" lon="4.41586">
        <ele>187.488</ele>
        <time>2017-07-13T13:03:45Z</time>
      </trkpt>
      <trkpt lat="50.35314" lon="4.4137">
        <ele>173.723</ele>
        <time>2017-07-13T13:04:03Z</time>
      </trkpt>
      <trkpt lat="50.3529" lon="4.41259">
        <ele>171.483</ele>
        <time>2017-07-13T13:04:35Z</time>
      </trkpt>
      <trkpt lat="50.3525" lon="4.41159">
        <ele>173.211</ele>
        <time>2017-07-13T13:04:47Z</time>
      </trkpt>
      <trkpt lat="50.35326" lon="4.41072">
        <ele>172.108</ele>
        <time>2017-07-13T13:05:03Z</time>
      </trkpt>
      <trkpt lat="50.35362" lon="4.41003">
        <ele>171.573</ele>
        <time>2017-07-13T13:05:13Z</time>
      </trkpt>
      <trkpt lat="50.35446" lon="4.40917">
        <ele>169.84</ele>
        <time>2017-07-13T13:05:31Z</time>
      </trkpt>
      <trkpt lat="50.35566" lon="4.40827">
        <ele>163.618</ele>
        <time>2017-07-13T13:06:00Z</time>
      </trkpt>
      <trkpt lat="50.35574" lon="4.408">
        <ele>162.914</ele>
        <time>2017-07-13T13:06:12Z</time>
      </trkpt>
      <trkpt lat="50.35613" lon="4.40769">
        <ele>168.97</ele>
        <time>2017-07-13T13:06:21Z</time>
      </trkpt>
      <trkpt lat="50.35654" lon="4.407">
        <ele>163.426</ele>
        <time>2017-07-13T13:06:39Z</time>
      </trkpt>
      <trkpt lat="50.35646" lon="4.4067">
        <ele>165.656</ele>
        <time>2017-07-13T13:06:46Z</time>
      </trkpt>
      <trkpt lat="50.3566" lon="4.40645">
        <ele>162.469</ele>
        <time>2017-07-13T13:06:51Z</time>
      </trkpt>
      <trkpt lat="50.35807" lon="4.40569">
        <ele>154.323</ele>
        <time>2017-07-13T13:07:28Z</time>
      </trkpt>
      <trkpt lat="50.35839" lon="4.40437">
        <ele>151.083</ele>
        <time>2017-07-13T13:07:58Z</time>
      </trkpt>
      <trkpt lat="50.35845" lon="4.40343">
        <ele>155.011</ele>
        <time>2017-07-13T13:08:32Z</time>
      </trkpt>
      <trkpt lat="50.35729" lon="4.40369">
        <ele>164.608</ele>
        <time>2017-07-13T13:09:01Z</time>
      </trkpt>
      <trkpt lat="50.35557" lon="4.40342">
        <ele>165.823</ele>
        <time>2017-07-13T13:09:47Z</time>
      </trkpt>
      <trkpt lat="50.35429" lon="4.40397">
        <ele>162.77</ele>
        <time>2017-07-13T13:10:24Z</time>
      </trkpt>
      <trkpt lat="50.35196" lon="4.40525">
        <ele>173.028</ele>
        <time>2017-07-13T13:11:40Z</time>
      </trkpt>
      <trkpt lat="50.35015" lon="4.40767">
        <ele>172.664</ele>
        <time>2017-07-13T13:12:21Z</time>
      </trkpt>
      <trkpt lat="50.34996" lon="4.40707">
        <ele>176.22</ele>
        <time>2017-07-13T13:12:40Z</time>
      </trkpt>
      <trkpt lat="50.34832" lon="4.40498">
        <ele>206.156</ele>
        <time>2017-07-13T13:14:39Z</time>
      </trkpt>
      <trkpt lat="50.34782" lon="4.40341">
        <ele>211.746</ele>
        <time>2017-07-13T13:15:48Z</time>
      </trkpt>
      <trkpt lat="50.34708" lon="4.40225">
        <ele>204.799</ele>
        <time>2017-07-13T13:16:46Z</time>
      </trkpt>
      <trkpt lat="50.34507" lon="4.40422">
        <ele>224.839</ele>
        <time>2017-07-13T13:19:05Z</time>
      </trkpt>
      <trkpt lat="50.34513" lon="4.40482">
        <ele>223.201</ele>
        <time>2017-07-13T13:19:16Z</time>
      </trkpt>
      <trkpt lat="50.3449" lon="4.4049">
        <ele>221.121</ele>
        <time>2017-07-13T13:19:23Z</time>
      </trkpt>
      <trkpt lat="50.34442" lon="4.40402">
        <ele>216.808</ele>
        <time>2017-07-13T13:19:39Z</time>
      </trkpt>
      <trkpt lat="50.34411" lon="4.40693">
        <ele>204.074</ele>
        <time>2017-07-13T13:20:12Z</time>
      </trkpt>
      <trkpt lat="50.344" lon="4.40738">
        <ele>200.331</ele>
        <time>2017-07-13T13:20:16Z</time>
      </trkpt>
      <trkpt lat="50.34378" lon="4.4074">
        <ele>192.889</ele>
        <time>2017-07-13T13:21:25Z</time>
      </trkpt>
      <trkpt lat="50.34352" lon="4.40642">
        <ele>181.935</ele>
        <time>2017-07-13T13:22:07Z</time>
      </trkpt>
      <trkpt lat="50.34278" lon="4.40471">
        <ele>179.561</ele>
        <time>2017-07-13T13:22:36Z</time>
      </trkpt>
      <trkpt lat="50.34175" lon="4.40311">
        <ele>186.787</ele>
        <time>2017-07-13T13:23:47Z</time>
      </trkpt>
      <trkpt lat="50.34059" lon="4.40223">
        <ele>191.967</ele>
        <time>2017-07-13T13:24:31Z</time>
      </trkpt>
      <trkpt lat="50.34035" lon="4.40228">
        <ele>193.71</ele>
        <time>2017-07-13T13:24:38Z</time>
      </trkpt>
      <trkpt lat="50.3401" lon="4.40205">
        <ele>193.869</ele>
        <time>2017-07-13T13:24:48Z</time>
      </trkpt>
      <trkpt lat="50.33971" lon="4.40194">
        <ele>194.804</ele>
        <time>2017-07-13T13:25:00Z</time>
      </trkpt>
      <trkpt lat="50.33895" lon="4.4023">
        <ele>180.224</ele>
        <time>2017-07-13T13:25:28Z</time>
      </trkpt>
      <trkpt lat="50.33719" lon="4.406">
        <ele>176.908</ele>
        <time>2017-07-13T13:26:52Z</time>
      </trkpt>
      <trkpt lat="50.33624" lon="4.40671">
        <ele>182.397</ele>
        <time>2017-07-13T13:27:19Z</time>
      </trkpt>
      <trkpt lat="50.336" lon="4.40705">
        <ele>185.834</ele>
        <time>2017-07-13T13:27:26Z</time>
      </trkpt>
      <trkpt lat="50.33578" lon="4.40818">
        <ele>179.792</ele>
        <time>2017-07-13T13:30:43Z</time>
      </trkpt>
      <trkpt lat="50.33599" lon="4.40846">
        <ele>188.578</ele>
        <time>2017-07-13T13:31:03Z</time>
      </trkpt>
      <trkpt lat="50.33665" lon="4.4087">
        <ele>206.434</ele>
        <time>2017-07-13T13:31:38Z</time>
      </trkpt>
      <trkpt lat="50.33701" lon="4.40923">
        <ele>208.98</ele>
        <time>2017-07-13T13:32:08Z</time>
      </trkpt>
      <trkpt lat="50.33736" lon="4.41134">
        <ele>223.54</ele>
        <time>2017-07-13T13:33:48Z</time>
      </trkpt>
      <trkpt lat="50.3379" lon="4.41201">
        <ele>240.483</ele>
        <time>2017-07-13T13:34:38Z</time>
      </trkpt>
      <trkpt lat="50.33858" lon="4.41392">
        <ele>244.755</ele>
        <time>2017-07-13T13:35:50Z</time>
      </trkpt>
      <trkpt lat="50.33866" lon="4.414">
        <ele>246.607</ele>
        <time>2017-07-13T13:37:47Z</time>
      </trkpt>
      <trkpt lat="50.33884" lon="4.41386">
        <ele>246.017</ele>
        <time>2017-07-13T13:38:05Z</time>
      </trkpt>
      <trkpt lat="50.33944" lon="4.41306">
        <ele>252.308</ele>
        <time>2017-07-13T13:38:43Z</time>
      </trkpt>
      <trkpt lat="50.33962" lon="4.41301">
        <ele>256.846</ele>
        <time>2017-07-13T13:39:20Z</time>
      </trkpt>
      <trkpt lat="50.34065" lon="4.41804">
        <ele>262.663</ele>
        <time>2017-07-13T13:40:30Z</time>
      </trkpt>
      <trkpt lat="50.34148" lon="4.42338">
        <ele>253.941</ele>
        <time>2017-07-13T13:42:17Z</time>
      </trkpt>
      <trkpt lat="50.34223" lon="4.42628">
        <ele>259.757</ele>
        <time>2017-07-13T13:43:20Z</time>
      </trkpt>
      <trkpt lat="50.34327" lon="4.42833">
        <ele>264.133</ele>
        <time>2017-07-13T13:44:08Z</time>
      </trkpt>
      <trkpt lat="50.34439" lon="4.42827">
        <ele>262.789</ele>
        <time>2017-07-13T13:44:45Z</time>
      </trkpt>
      <trkpt lat="50.34518" lon="4.42638">
        <ele>257.899</ele>
        <time>2017-07-13T13:45:18Z</time>
      </trkpt>
      <trkpt lat="50.34595" lon="4.42675">
        <ele>258.652</ele>
        <time>2017-07-13T13:45:53Z</time>
      </trkpt>
      <trkpt lat="50.34732" lon="4.42908">
        <ele>253.123</ele>
        <time>2017-07-13T13:46:39Z</time>
      </trkpt>
      <trkpt lat="50.3487" lon="4.43068">
        <ele>260.283</ele>
        <time>2017-07-13T13:47:15Z</time>
      </trkpt>
      <trkpt lat="50.3494" lon="4.43209">
        <ele>259.111</ele>
        <time>2017-07-13T13:47:39Z</time>
      </trkpt>
      <trkpt lat="50.34995" lon="4.43253">
        <ele>253.808</ele>
        <time>2017-07-13T13:47:57Z</time>
      </trkpt>
      <trkpt lat="50.3501" lon="4.433">
        <ele>251.263</ele>
        <time>2017-07-13T13:48:04Z</time>
      </trkpt>
      <trkpt lat="50.35056" lon="4.4336">
        <ele>248.87</ele>
        <time>2017-07-13T13:48:22Z</time>
      </trkpt>
      <trkpt lat="50.35066" lon="4.43403">
        <ele>261.558</ele>
        <time>2017-07-13T13:48:36Z</time>
      </trkpt>
      <trkpt lat="50.35086" lon="4.43413">
        <ele>263.884</ele>
        <time>2017-07-13T13:48:44Z</time>
      </trkpt>
      <trkpt lat="50.35121" lon="4.43579">
        <ele>268.38</ele>
        <time>2017-07-13T13:49:24Z</time>
      </trkpt>
      <trkpt lat="50.35189" lon="4.43723">
        <ele>277.396</ele>
        <time>2017-07-13T13:50:04Z</time>
      </trkpt>
      <trkpt lat="50.35208" lon="4.43742">
        <ele>277.196</ele>
        <time>2017-07-13T13:50:09Z</time>
      </trkpt>
      <trkpt lat="50.35265" lon="4.43754">
        <ele>278.089</ele>
        <time>2017-07-13T13:50:24Z</time>
      </trkpt>
      <trkpt lat="50.35269" lon="4.43953">
        <ele>282.462</ele>
        <time>2017-07-13T13:51:01Z</time>
      </trkpt>
      <trkpt lat="50.35375" lon="4.44363">
        <ele>282.583</ele>
        <time>2017-07-13T13:51:56Z</time>
      </trkpt>
      <trkpt lat="50.35534" lon="4.4421">
        <ele>270.411</ele>
        <time>2017-07-13T13:52:39Z</time>
      </trkpt>
      <trkpt lat="50.35671" lon="4.4444">
        <ele>267.608</ele>
        <time>2017-07-13T13:53:24Z</time>
      </trkpt>
      <trkpt lat="50.35705" lon="4.44522">
        <ele>267.517</ele>
        <time>2017-07-13T13:53:36Z</time>
      </trkpt>
      <trkpt lat="50.35901" lon="4.44733">
        <ele>264.414</ele>
        <time>2017-07-13T13:54:19Z</time>
      </trkpt>
      <trkpt lat="50.3598" lon="4.44883">
        <ele>266.882</ele>
        <time>2017-07-13T13:54:42Z</time>
      </trkpt>
      <trkpt lat="50.36129" lon="4.45115">
        <ele>248.978</ele>
        <time>2017-07-13T13:55:16Z</time>
      </trkpt>
      <trkpt lat="50.36291" lon="4.45186">
        <ele>247.934</ele>
        <time>2017-07-13T13:55:39Z</time>
      </trkpt>
      <trkpt lat="50.36412" lon="4.45285">
        <ele>246.51</ele>
        <time>2017-07-13T13:55:52Z</time>
      </trkpt>
      <trkpt lat="50.36607" lon="4.45352">
        <ele>225.02</ele>
        <time>2017-07-13T13:56:17Z</time>
      </trkpt>
      <trkpt lat="50.36688" lon="4.4545">
        <ele>225.713</ele>
        <time>2017-07-13T13:56:34Z</time>
      </trkpt>
      <trkpt lat="50.36839" lon="4.45537">
        <ele>215.629</ele>
        <time>2017-07-13T13:56:56Z</time>
      </trkpt>
      <trkpt lat="50.36937" lon="4.45558">
        <ele>209.9</ele>
        <time>2017-07-13T13:57:12Z</time>
      </trkpt>
      <trkpt lat="50.36985" lon="4.45583">
        <ele>213.82</ele>
        <time>2017-07-13T13:57:21Z</time>
      </trkpt>
      <trkpt lat="50.37156" lon="4.45592">
        <ele>203.008</ele>
        <time>2017-07-13T13:57:46Z</time>
      </trkpt>
      <trkpt lat="50.37196" lon="4.45611">
        <ele>208.563</ele>
        <time>2017-07-13T13:58:00Z</time>
      </trkpt>
      <trkpt lat="50.37269" lon="4.45583">
        <ele>208.86</ele>
        <time>2017-07-13T13:58:26Z</time>
      </trkpt>
    </trkseg>
  </trk>
</gpx>